createdAt,value
2018-12-19T00:01:49.444Z,0
2018-12-19T00:12:03.344Z,0
2018-12-19T00:22:18.181Z,0
2018-12-19T00:32:33.391Z,0
2018-12-19T00:42:48.475Z,0
2018-12-19T00:53:02.181Z,0
2018-12-19T01:03:17.524Z,0
2018-12-19T01:13:32.712Z,0
2018-12-19T01:23:46.947Z,0
2018-12-19T01:34:02.339Z,0
2018-12-19T01:44:17.474Z,0
2018-12-19T01:54:32.477Z,0
2018-12-19T02:04:46.831Z,0
2018-12-19T02:15:02.058Z,0
2018-12-19T02:25:17.517Z,0
2018-12-19T02:35:32.511Z,0
2018-12-19T02:45:47.631Z,0
2018-12-19T02:56:02.036Z,0
2018-12-19T03:06:17.663Z,0
2018-12-19T03:16:32.770Z,0
2018-12-19T03:26:47.153Z,0
2018-12-19T03:37:00.927Z,0
2018-12-19T03:47:14.724Z,0
2018-12-19T03:57:30.253Z,0
2018-12-19T04:07:44.103Z,0
2018-12-19T04:17:58.271Z,0
2018-12-19T04:28:13.625Z,0
2018-12-19T04:38:27.555Z,0
2018-12-19T04:48:41.348Z,0
2018-12-19T04:58:55.400Z,0
2018-12-19T05:09:09.693Z,0
2018-12-19T05:19:24.506Z,0
2018-12-19T05:29:40.192Z,0
2018-12-19T05:39:55.692Z,0
2018-12-19T05:50:09.993Z,0
2018-12-19T06:00:24.846Z,0
2018-12-19T06:10:38.541Z,0
2018-12-19T06:20:53.130Z,0
2018-12-19T06:31:07.672Z,0
2018-12-19T06:41:23.190Z,0
2018-12-19T06:51:38.744Z,0
2018-12-19T07:01:53.699Z,0
2018-12-19T07:12:07.837Z,0
2018-12-19T07:22:23.514Z,0
2018-12-19T07:32:38.546Z,0
2018-12-19T07:42:53.068Z,5
2018-12-19T07:53:06.951Z,10
2018-12-19T08:03:21.029Z,10
2018-12-19T08:13:36.137Z,15
2018-12-19T08:23:50.407Z,15
2018-12-19T08:34:05.221Z,15
2018-12-19T08:44:19.076Z,25
2018-12-19T08:54:33.706Z,35
2018-12-19T09:04:47.468Z,30
2018-12-19T09:15:02.035Z,25
2018-12-19T09:25:17.228Z,70
2018-12-19T09:35:32.473Z,75
2018-12-19T09:45:47.954Z,120
2018-12-19T09:56:01.687Z,205
2018-12-19T10:06:15.808Z,160
2018-12-19T10:16:30.539Z,225
2018-12-19T10:26:44.471Z,210
2018-12-19T10:36:59.773Z,195
2018-12-19T10:47:14.488Z,245
2018-12-19T10:57:30.118Z,315
2018-12-19T11:07:44.919Z,180
2018-12-19T11:17:59.248Z,220
2018-12-19T11:28:13.792Z,195
2018-12-19T11:38:28.648Z,145
2018-12-19T11:48:43.750Z,205
2018-12-19T11:58:59.152Z,200
2018-12-19T12:09:13.936Z,190
2018-12-19T12:19:29.267Z,160
2018-12-19T12:29:44.343Z,160
2018-12-19T12:39:58.434Z,130
2018-12-19T12:50:13.977Z,50
2018-12-19T13:00:28.386Z,70
2018-12-19T13:10:42.571Z,60
2018-12-19T13:20:57.462Z,70
2018-12-19T13:31:12.478Z,45
2018-12-19T13:41:27.462Z,65
2018-12-19T13:51:42.762Z,55
2018-12-19T14:01:57.311Z,55
2018-12-19T14:12:12.071Z,55
2018-12-19T14:22:27.414Z,50
2018-12-19T14:32:42.489Z,55
2018-12-19T14:42:57.795Z,35
2018-12-19T14:53:13.290Z,25
2018-12-19T15:03:27.827Z,25
2018-12-19T15:13:43.108Z,15
2018-12-19T15:23:57.454Z,5
2018-12-19T15:34:12.541Z,0
2018-12-19T15:44:28.103Z,0
2018-12-19T15:54:42.442Z,0
2018-12-19T16:04:56.543Z,0
2018-12-19T16:15:11.373Z,0
2018-12-19T16:25:26.889Z,0
2018-12-19T16:35:42.273Z,0
2018-12-19T16:45:56.772Z,0
2018-12-19T16:56:11.788Z,0
2018-12-19T17:06:27.140Z,0
2018-12-19T17:16:41.603Z,0
2018-12-19T17:26:55.302Z,0
2018-12-19T17:37:09.322Z,0
2018-12-19T17:47:23.580Z,0
2018-12-19T17:57:37.956Z,0
2018-12-19T18:07:51.634Z,0
2018-12-19T18:18:05.749Z,0
2018-12-19T18:28:20.255Z,0
2018-12-19T18:38:35.149Z,0
2018-12-19T18:48:48.949Z,0
2018-12-19T18:59:03.661Z,0
2018-12-19T19:09:18.760Z,0
2018-12-19T19:19:32.563Z,0
2018-12-19T19:29:46.690Z,0
2018-12-19T19:40:00.490Z,0
2018-12-19T19:50:15.059Z,0
2018-12-19T20:00:30.688Z,0
2018-12-19T20:10:46.082Z,0
2018-12-19T20:21:00.833Z,0
2018-12-19T20:31:15.149Z,0
2018-12-19T20:41:30.060Z,0
2018-12-19T20:51:44.988Z,0
2018-12-19T21:01:59.353Z,0
2018-12-19T21:12:14.829Z,0
2018-12-19T21:22:28.925Z,0
2018-12-19T21:32:42.555Z,0
2018-12-19T21:42:56.980Z,0
2018-12-19T21:53:11.525Z,0
2018-12-19T22:03:27.068Z,0
2018-12-19T22:13:42.710Z,0
2018-12-19T22:23:58.381Z,0
2018-12-19T22:34:12.472Z,0
2018-12-19T22:44:26.488Z,0
2018-12-19T22:54:41.891Z,0
2018-12-19T23:04:56.738Z,0
2018-12-19T23:15:10.577Z,0
2018-12-19T23:25:25.269Z,0
2018-12-19T23:35:39.206Z,0
2018-12-19T23:45:53.581Z,0
2018-12-19T23:56:07.989Z,0
